Time;durP1;ratioP1;P1;durP2;ratioP2;P2;SDS_P1;SDS_P2;PMS_P1;PMS_P2;Temp;Humidity;BMP_temperature;BMP_pressure;BME280_temperature;BME280_humidity;BME280_pressure;Samples;Min_cycle;Max_cycle;Signal;HPM_P1;HPM_P2
2021/11/20 00:00:20;;;;;;;8.45;2.88;;;;;;;;;;5053843;28;20215;-57
2021/11/20 00:02:47;;;;;;;8.77;2.70;;;;;;;;;;5044238;28;20380;-56
2021/11/20 00:05:14;;;;;;;5.85;3.28;;;;;;;;;;5053312;28;20057;-56
2021/11/20 00:07:40;;;;;;;6.93;2.75;;;;;;;;;;5048847;28;20108;-57
2021/11/20 00:10:09;;;;;;;4.57;2.80;;;;;;;;;;5052473;28;20139;-55
2021/11/20 00:12:35;;;;;;;5.60;2.53;;;;;;;;;;5042532;28;20038;-56
2021/11/20 00:15:01;;;;;;;3.95;2.55;;;;;;;;;;5052399;28;20033;-51
2021/11/20 00:17:27;;;;;;;6.90;2.75;;;;;;;;;;5038652;28;20448;-56
2021/11/20 00:19:54;;;;;;;6.97;2.72;;;;;;;;;;5048537;28;20029;-57
2021/11/20 00:22:28;;;;;;;5.07;3.13;;;;;;;;;;5051898;28;20552;-57
2021/11/20 00:24:56;;;;;;;6.45;2.38;;;;;;;;;;5047751;28;20029;-57
2021/11/20 00:27:32;;;;;;;5.43;2.45;;;;;;;;;;5052332;28;20461;-57
2021/11/20 00:30:02;;;;;;;7.20;2.25;;;;;;;;;;5046535;28;20404;-57
2021/11/20 00:32:31;;;;;;;5.78;2.03;;;;;;;;;;5039749;28;20085;-57
2021/11/20 00:34:59;;;;;;;4.60;2.67;;;;;;;;;;5048557;28;20556;-57
2021/11/20 00:37:25;;;;;;;5.07;2.17;;;;;;;;;;5047785;28;20132;-57
2021/11/20 00:39:51;;;;;;;8.27;2.83;;;;;;;;;;5052647;28;20103;-55
2021/11/20 00:42:18;;;;;;;7.43;2.90;;;;;;;;;;5048810;28;20040;-53
2021/11/20 00:44:44;;;;;;;4.68;2.20;;;;;;;;;;5051808;28;20036;-55
2021/11/20 00:47:10;;;;;;;4.70;2.30;;;;;;;;;;5051645;28;20063;-57
2021/11/20 00:49:37;;;;;;;6.57;2.58;;;;;;;;;;5052426;28;20044;-57
2021/11/20 00:52:03;;;;;;;4.38;2.42;;;;;;;;;;5052442;28;20020;-55
2021/11/20 00:54:29;;;;;;;6.28;2.78;;;;;;;;;;5045750;28;20029;-57
2021/11/20 00:56:55;;;;;;;11.40;3.55;;;;;;;;;;5049526;28;20411;-54
2021/11/20 00:59:21;;;;;;;7.43;2.80;;;;;;;;;;5051050;28;20043;-57
2021/11/20 01:01:49;;;;;;;5.28;1.95;;;;;;;;;;5046848;28;20465;-57
2021/11/20 01:04:15;;;;;;;6.13;2.80;;;;;;;;;;5048115;28;20025;-57
2021/11/20 01:06:42;;;;;;;8.27;2.40;;;;;;;;;;5051721;28;20151;-56
2021/11/20 01:09:08;;;;;;;3.45;1.92;;;;;;;;;;5052126;28;20031;-57
2021/11/20 01:11:39;;;;;;;4.70;2.60;;;;;;;;;;5052097;28;20468;-57
2021/11/20 01:14:07;;;;;;;3.42;2.20;;;;;;;;;;5051021;28;20496;-56
2021/11/20 01:16:33;;;;;;;4.00;2.00;;;;;;;;;;5052119;28;20032;-57
2021/11/20 01:19:00;;;;;;;4.80;2.03;;;;;;;;;;5052014;28;20032;-57
2021/11/20 01:21:27;;;;;;;6.43;2.20;;;;;;;;;;5050210;28;20116;-55
2021/11/20 01:23:53;;;;;;;4.47;2.08;;;;;;;;;;5050560;28;20108;-57
2021/11/20 01:26:21;;;;;;;6.03;2.10;;;;;;;;;;5045889;28;20025;-54
2021/11/20 01:28:49;;;;;;;4.30;2.08;;;;;;;;;;5043738;28;20021;-57
2021/11/20 01:31:16;;;;;;;7.07;2.28;;;;;;;;;;5047956;28;20017;-55
2021/11/20 01:33:42;;;;;;;5.32;2.42;;;;;;;;;;5049643;28;20047;-56
2021/11/20 01:36:09;;;;;;;3.10;1.90;;;;;;;;;;5051757;28;20114;-54
2021/11/20 01:38:36;;;;;;;5.63;2.13;;;;;;;;;;5051514;28;20032;-56
2021/11/20 01:41:02;;;;;;;6.53;2.08;;;;;;;;;;5052014;28;20698;-56
2021/11/20 01:43:28;;;;;;;5.90;1.90;;;;;;;;;;5051662;28;20109;-56
2021/11/20 01:46:03;;;;;;;7.72;2.00;;;;;;;;;;5051871;28;20029;-56
2021/11/20 01:48:35;;;;;;;2.50;1.70;;;;;;;;;;5051131;28;20104;-57
2021/11/20 01:51:05;;;;;;;2.70;1.75;;;;;;;;;;5047505;28;20366;-55
2021/11/20 01:53:36;;;;;;;4.70;1.80;;;;;;;;;;5056918;28;20076;-56
2021/11/20 01:56:11;;;;;;;3.85;2.10;;;;;;;;;;5062061;28;20100;-57
2021/11/20 01:58:47;;;;;;;4.05;2.05;;;;;;;;;;5048798;28;20115;-56
2021/11/20 02:01:15;;;;;;;4.88;1.95;;;;;;;;;;5046238;28;20029;-55
2021/11/20 02:03:48;;;;;;;2.30;1.52;;;;;;;;;;5058240;28;20476;-55
2021/11/20 02:06:17;;;;;;;6.43;2.10;;;;;;;;;;5034021;28;20025;-57
2021/11/20 02:08:45;;;;;;;1.98;1.45;;;;;;;;;;5050765;28;20029;-55
2021/11/20 02:11:22;;;;;;;5.88;1.95;;;;;;;;;;5051531;28;20033;-56
2021/11/20 02:13:48;;;;;;;4.43;2.35;;;;;;;;;;5051140;28;20377;-55
2021/11/20 02:16:16;;;;;;;5.18;1.92;;;;;;;;;;5044532;28;20033;-57
2021/11/20 02:18:48;;;;;;;2.55;1.35;;;;;;;;;;5039423;28;20025;-51
2021/11/20 02:21:26;;;;;;;3.40;1.80;;;;;;;;;;5051421;28;21964;-55
2021/11/20 02:23:52;;;;;;;4.80;1.90;;;;;;;;;;5051507;28;20092;-55
2021/11/20 02:26:18;;;;;;;3.88;1.60;;;;;;;;;;5047035;28;20048;-56
2021/11/20 02:28:45;;;;;;;5.22;2.20;;;;;;;;;;5049066;28;20434;-55
2021/11/20 02:31:12;;;;;;;4.30;1.30;;;;;;;;;;5053123;28;20025;-55
2021/11/20 02:33:40;;;;;;;2.17;1.35;;;;;;;;;;5052875;28;20131;-57
2021/11/20 02:36:08;;;;;;;3.42;1.45;;;;;;;;;;5054614;28;20074;-57
2021/11/20 02:38:43;;;;;;;2.33;1.48;;;;;;;;;;5054767;28;20045;-57
2021/11/20 02:41:11;;;;;;;4.55;1.90;;;;;;;;;;5055048;28;20338;-57
2021/11/20 02:43:39;;;;;;;1.83;1.25;;;;;;;;;;5055261;28;20032;-56
2021/11/20 02:46:06;;;;;;;4.80;1.77;;;;;;;;;;5054357;28;20032;-57
2021/11/20 02:48:32;;;;;;;3.10;1.45;;;;;;;;;;5048506;28;20026;-57
2021/11/20 02:51:02;;;;;;;3.20;1.50;;;;;;;;;;5050471;28;20024;-56
2021/11/20 02:53:31;;;;;;;2.42;1.50;;;;;;;;;;5059620;28;20139;-57
2021/11/20 02:55:57;;;;;;;3.00;1.70;;;;;;;;;;5057486;28;20029;-57
2021/11/20 02:58:24;;;;;;;3.75;1.27;;;;;;;;;;5052977;28;20024;-57
2021/11/20 03:01:10;;;;;;;4.15;1.75;;;;;;;;;;5047429;28;20021;-56
2021/11/20 03:03:36;;;;;;;5.07;1.58;;;;;;;;;;5045421;28;20088;-57
2021/11/20 03:06:02;;;;;;;2.90;1.40;;;;;;;;;;5053838;28;20032;-56
2021/11/20 03:08:28;;;;;;;2.22;1.20;;;;;;;;;;5052700;28;20103;-56
2021/11/20 03:10:54;;;;;;;3.85;1.33;;;;;;;;;;5055415;28;20164;-55
2021/11/20 03:13:20;;;;;;;4.70;1.80;;;;;;;;;;5053658;28;20117;-57
2021/11/20 03:15:46;;;;;;;4.60;1.40;;;;;;;;;;5054012;28;20089;-56
2021/11/20 03:18:12;;;;;;;3.08;1.15;;;;;;;;;;5049453;28;20484;-57
2021/11/20 03:20:39;;;;;;;4.53;1.42;;;;;;;;;;5048741;28;20037;-56
2021/11/20 03:23:15;;;;;;;4.20;2.00;;;;;;;;;;5049757;28;20048;-57
2021/11/20 03:25:41;;;;;;;4.43;1.50;;;;;;;;;;5050120;28;20068;-57
2021/11/20 03:28:08;;;;;;;2.53;1.30;;;;;;;;;;5054179;28;20511;-57
2021/11/20 03:30:34;;;;;;;2.40;1.13;;;;;;;;;;5047954;28;20025;-57
2021/11/20 03:33:00;;;;;;;2.92;1.45;;;;;;;;;;5046199;28;20068;-56
2021/11/20 03:35:26;;;;;;;1.67;1.17;;;;;;;;;;5049642;28;20024;-54
2021/11/20 03:37:53;;;;;;;2.92;1.25;;;;;;;;;;5052390;28;20068;-53
2021/11/20 03:40:19;;;;;;;1.92;1.23;;;;;;;;;;5053075;28;20033;-55
2021/11/20 03:42:45;;;;;;;5.45;1.98;;;;;;;;;;5046596;28;20036;-55
2021/11/20 03:45:11;;;;;;;2.05;1.42;;;;;;;;;;5050920;28;20029;-56
2021/11/20 03:47:38;;;;;;;3.42;1.63;;;;;;;;;;5051963;28;20100;-55
2021/11/20 03:50:04;;;;;;;3.80;1.73;;;;;;;;;;5054124;28;20028;-56
2021/11/20 03:52:30;;;;;;;4.05;1.80;;;;;;;;;;5047117;28;20401;-56
2021/11/20 03:54:56;;;;;;;2.13;1.42;;;;;;;;;;5053991;28;20025;-57
2021/11/20 03:57:22;;;;;;;2.92;1.55;;;;;;;;;;5053720;28;20547;-57
2021/11/20 03:59:48;;;;;;;6.45;1.73;;;;;;;;;;5050937;28;20033;-56
2021/11/20 04:02:15;;;;;;;3.65;1.70;;;;;;;;;;5044110;28;20041;-57
2021/11/20 04:04:41;;;;;;;3.42;1.80;;;;;;;;;;5051233;28;20029;-55
2021/11/20 04:07:07;;;;;;;6.35;1.73;;;;;;;;;;5051166;28;20108;-56
2021/11/20 04:09:33;;;;;;;3.45;2.00;;;;;;;;;;5053183;28;20104;-57
2021/11/20 04:11:59;;;;;;;2.40;1.80;;;;;;;;;;5053886;28;20061;-54
2021/11/20 04:14:26;;;;;;;2.92;1.70;;;;;;;;;;5053094;28;20064;-57
2021/11/20 04:16:53;;;;;;;3.97;1.95;;;;;;;;;;5048409;28;20033;-54
2021/11/20 04:19:19;;;;;;;2.33;1.40;;;;;;;;;;5047895;28;20028;-56
2021/11/20 04:21:45;;;;;;;5.53;1.60;;;;;;;;;;5049023;28;20032;-57
2021/11/20 04:24:11;;;;;;;1.67;1.30;;;;;;;;;;5051339;28;20112;-56
2021/11/20 04:26:37;;;;;;;2.25;1.70;;;;;;;;;;5048190;28;20029;-55
2021/11/20 04:29:04;;;;;;;2.15;1.40;;;;;;;;;;5047847;28;20036;-56
2021/11/20 04:31:30;;;;;;;1.83;1.27;;;;;;;;;;5034024;28;20037;-54
2021/11/20 04:33:56;;;;;;;3.35;1.88;;;;;;;;;;5051705;28;20505;-57
2021/11/20 04:36:24;;;;;;;2.65;1.90;;;;;;;;;;5052993;28;20029;-57
2021/11/20 04:38:50;;;;;;;3.42;1.58;;;;;;;;;;5052304;28;20033;-56
2021/11/20 04:41:16;;;;;;;3.55;1.70;;;;;;;;;;5053030;28;20024;-57
2021/11/20 04:43:43;;;;;;;4.53;1.58;;;;;;;;;;5053086;28;20108;-56
2021/11/20 04:46:10;;;;;;;2.63;1.52;;;;;;;;;;5050446;28;20052;-56
2021/11/20 04:48:36;;;;;;;2.92;1.77;;;;;;;;;;5051391;28;20393;-56
2021/11/20 04:51:02;;;;;;;2.53;1.75;;;;;;;;;;5049034;28;20056;-54
2021/11/20 04:53:29;;;;;;;3.05;1.75;;;;;;;;;;5049034;28;20049;-57
2021/11/20 04:55:57;;;;;;;5.15;1.95;;;;;;;;;;5051067;28;20021;-57
2021/11/20 04:58:24;;;;;;;7.72;2.00;;;;;;;;;;5050998;28;20486;-57
2021/11/20 05:00:52;;;;;;;4.65;2.80;;;;;;;;;;5052576;28;20509;-57
2021/11/20 05:03:18;;;;;;;4.15;2.35;;;;;;;;;;5041565;28;20112;-57
2021/11/20 05:05:45;;;;;;;4.55;1.95;;;;;;;;;;5050031;28;20541;-54
2021/11/20 05:08:11;;;;;;;4.63;2.05;;;;;;;;;;5050367;28;20104;-57
2021/11/20 05:10:39;;;;;;;3.28;2.03;;;;;;;;;;5051600;28;20477;-55
2021/11/20 05:13:05;;;;;;;5.47;2.45;;;;;;;;;;5051839;28;20127;-55
2021/11/20 05:15:32;;;;;;;3.70;2.38;;;;;;;;;;5055310;28;20528;-57
2021/11/20 05:17:59;;;;;;;4.53;2.55;;;;;;;;;;5053936;28;20057;-55
2021/11/20 05:20:25;;;;;;;5.38;2.28;;;;;;;;;;5051294;28;20043;-55
2021/11/20 05:22:51;;;;;;;3.05;1.80;;;;;;;;;;5058428;28;20059;-54
2021/11/20 05:25:19;;;;;;;3.33;1.65;;;;;;;;;;5055642;28;20718;-57
2021/11/20 05:27:46;;;;;;;3.35;2.20;;;;;;;;;;5058145;28;20047;-54
2021/11/20 05:30:18;;;;;;;3.65;2.03;;;;;;;;;;5055789;28;20110;-54
2021/11/20 05:32:45;;;;;;;7.18;2.10;;;;;;;;;;5064640;28;20060;-55
2021/11/20 05:35:11;;;;;;;5.30;1.92;;;;;;;;;;5048357;28;20030;-56
2021/11/20 05:37:37;;;;;;;4.88;1.50;;;;;;;;;;5041784;28;20489;-56
2021/11/20 05:40:04;;;;;;;2.33;1.77;;;;;;;;;;5051888;28;20025;-52
2021/11/20 05:42:31;;;;;;;4.82;1.80;;;;;;;;;;5051582;28;20151;-52
2021/11/20 05:44:57;;;;;;;3.05;1.80;;;;;;;;;;5051894;28;20478;-55
2021/11/20 05:47:23;;;;;;;2.63;1.77;;;;;;;;;;5051670;28;20033;-56
2021/11/20 05:49:49;;;;;;;4.85;2.05;;;;;;;;;;5049785;28;20483;-55
2021/11/20 05:52:15;;;;;;;2.70;1.73;;;;;;;;;;5047739;28;20044;-56
2021/11/20 05:54:42;;;;;;;3.88;1.27;;;;;;;;;;5042411;28;20032;-57
2021/11/20 05:57:08;;;;;;;9.75;1.60;;;;;;;;;;5051714;28;20044;-55
2021/11/20 05:59:34;;;;;;;4.70;1.88;;;;;;;;;;5051773;28;20442;-57
2021/11/20 06:02:01;;;;;;;3.75;1.70;;;;;;;;;;5051641;28;20112;-57
2021/11/20 06:04:31;;;;;;;2.33;1.77;;;;;;;;;;5044585;28;20029;-57
2021/11/20 06:06:57;;;;;;;4.68;1.80;;;;;;;;;;5049609;28;20028;-57
2021/11/20 06:09:23;;;;;;;5.00;1.77;;;;;;;;;;5042326;28;20033;-55
2021/11/20 06:11:49;;;;;;;2.42;1.75;;;;;;;;;;5051721;28;20716;-54
2021/11/20 06:14:15;;;;;;;6.20;1.88;;;;;;;;;;5051164;28;20044;-56
2021/11/20 06:16:41;;;;;;;2.97;2.05;;;;;;;;;;5049744;28;20091;-57
2021/11/20 06:19:09;;;;;;;4.53;2.03;;;;;;;;;;5047590;28;20029;-57
2021/11/20 06:21:36;;;;;;;4.80;2.00;;;;;;;;;;5053745;28;20457;-57
2021/11/20 06:24:02;;;;;;;6.20;2.33;;;;;;;;;;5053630;28;20032;-56
2021/11/20 06:26:28;;;;;;;3.50;2.20;;;;;;;;;;5052776;28;20029;-57
2021/11/20 06:28:54;;;;;;;5.78;3.10;;;;;;;;;;5051252;28;20031;-57
2021/11/20 06:31:21;;;;;;;5.18;1.98;;;;;;;;;;5059138;28;20397;-55
2021/11/20 06:33:48;;;;;;;4.15;2.22;;;;;;;;;;5045721;28;20146;-56
2021/11/20 06:36:14;;;;;;;3.22;2.17;;;;;;;;;;5050456;28;20500;-55
2021/11/20 06:38:40;;;;;;;5.53;2.10;;;;;;;;;;5059266;28;20029;-54
2021/11/20 06:41:06;;;;;;;4.00;2.35;;;;;;;;;;5050006;28;20041;-53
2021/11/20 06:43:32;;;;;;;3.10;2.03;;;;;;;;;;5054554;28;20124;-54
2021/11/20 06:46:00;;;;;;;5.28;2.60;;;;;;;;;;5053441;28;20104;-56
2021/11/20 06:48:26;;;;;;;3.35;2.15;;;;;;;;;;5061759;28;20074;-55
2021/11/20 06:50:52;;;;;;;9.57;2.47;;;;;;;;;;5048833;28;20095;-55
2021/11/20 06:53:19;;;;;;;3.60;2.28;;;;;;;;;;5050087;28;20140;-55
2021/11/20 06:55:46;;;;;;;4.68;2.88;;;;;;;;;;5041931;28;20033;-57
2021/11/20 07:00:45;;;;;;;4.20;2.70;;;;;;;;;;5049907;28;20081;-57
2021/11/20 07:03:13;;;;;;;5.35;2.88;;;;;;;;;;5045501;28;20457;-57
2021/11/20 07:05:42;;;;;;;5.10;2.40;;;;;;;;;;5051399;28;20108;-57
2021/11/20 07:08:09;;;;;;;3.95;2.42;;;;;;;;;;5044270;28;20021;-57
2021/11/20 07:10:35;;;;;;;3.47;2.30;;;;;;;;;;5046320;28;20112;-57
2021/11/20 07:13:02;;;;;;;4.75;2.63;;;;;;;;;;5049419;28;20036;-57
2021/11/20 07:15:29;;;;;;;7.20;3.35;;;;;;;;;;5045570;28;20040;-57
2021/11/20 07:17:55;;;;;;;3.30;2.47;;;;;;;;;;5046982;28;20037;-56
2021/11/20 07:20:22;;;;;;;8.18;3.17;;;;;;;;;;5051329;28;20092;-56
2021/11/20 07:22:49;;;;;;;4.82;2.75;;;;;;;;;;5051008;28;20029;-55
2021/11/20 07:25:15;;;;;;;10.27;3.50;;;;;;;;;;5059724;28;20029;-55
2021/11/20 07:27:41;;;;;;;6.43;2.90;;;;;;;;;;5047773;28;20083;-56
2021/11/20 07:30:08;;;;;;;5.05;2.38;;;;;;;;;;5049719;28;20346;-57
2021/11/20 07:32:34;;;;;;;5.00;2.95;;;;;;;;;;5055968;28;20145;-55
2021/11/20 07:35:00;;;;;;;6.13;3.40;;;;;;;;;;5048509;28;20235;-57
2021/11/20 07:37:26;;;;;;;4.10;2.70;;;;;;;;;;5049633;28;20127;-56
2021/11/20 07:39:52;;;;;;;5.68;3.30;;;;;;;;;;5056535;28;20025;-56
2021/11/20 07:42:18;;;;;;;8.38;3.53;;;;;;;;;;5052512;28;20037;-57
2021/11/20 07:44:44;;;;;;;10.75;3.67;;;;;;;;;;5064140;28;20051;-55
2021/11/20 07:47:10;;;;;;;7.45;3.90;;;;;;;;;;5058934;28;20116;-57
2021/11/20 07:49:36;;;;;;;6.78;4.18;;;;;;;;;;5054329;28;20107;-57
2021/11/20 07:52:02;;;;;;;7.10;3.47;;;;;;;;;;5053356;28;20036;-56
2021/11/20 07:54:28;;;;;;;7.22;3.20;;;;;;;;;;5051331;28;20116;-55
2021/11/20 07:56:54;;;;;;;6.35;3.00;;;;;;;;;;5060633;28;20033;-56
2021/11/20 07:59:20;;;;;;;8.48;3.25;;;;;;;;;;5051953;28;20025;-56
2021/11/20 08:01:46;;;;;;;5.97;2.95;;;;;;;;;;5047526;28;20048;-55
2021/11/20 08:04:14;;;;;;;11.38;3.78;;;;;;;;;;5049235;28;20461;-55
2021/11/20 08:06:41;;;;;;;6.97;3.83;;;;;;;;;;5043007;28;20825;-57
2021/11/20 08:09:09;;;;;;;7.97;3.40;;;;;;;;;;5041721;28;20029;-57
2021/11/20 08:11:38;;;;;;;8.48;3.03;;;;;;;;;;5047623;28;20106;-56
2021/11/20 08:14:04;;;;;;;5.72;3.40;;;;;;;;;;5047260;28;20037;-57
2021/11/20 08:16:30;;;;;;;10.45;3.90;;;;;;;;;;5058348;28;20048;-57
2021/11/20 08:18:56;;;;;;;10.80;3.42;;;;;;;;;;5045938;28;20116;-57
2021/11/20 08:21:22;;;;;;;7.00;3.33;;;;;;;;;;5061584;28;20107;-57
2021/11/20 08:23:50;;;;;;;7.75;3.40;;;;;;;;;;5055665;28;20655;-57
2021/11/20 08:26:16;;;;;;;9.18;3.67;;;;;;;;;;5059536;28;20012;-57
2021/11/20 08:28:42;;;;;;;6.90;3.83;;;;;;;;;;5044721;28;20528;-57
2021/11/20 08:31:08;;;;;;;6.50;3.50;;;;;;;;;;5052367;28;20116;-57
2021/11/20 08:33:36;;;;;;;9.65;3.78;;;;;;;;;;5049098;28;20106;-57
2021/11/20 08:36:03;;;;;;;8.52;4.03;;;;;;;;;;5063847;28;20467;-57
2021/11/20 08:38:29;;;;;;;6.22;3.35;;;;;;;;;;5045103;28;20384;-55
2021/11/20 08:40:55;;;;;;;5.30;3.40;;;;;;;;;;5042415;28;20029;-56
2021/11/20 08:43:28;;;;;;;5.28;3.30;;;;;;;;;;5048803;28;20026;-56
2021/11/20 08:45:55;;;;;;;5.28;2.88;;;;;;;;;;5050402;28;20575;-57
2021/11/20 08:48:22;;;;;;;6.53;3.40;;;;;;;;;;5045705;28;20052;-57
2021/11/20 08:50:57;;;;;;;8.55;3.63;;;;;;;;;;5052826;28;20035;-56
2021/11/20 08:53:23;;;;;;;12.27;3.67;;;;;;;;;;5052549;28;20056;-57
2021/11/20 08:55:50;;;;;;;6.10;3.17;;;;;;;;;;5048951;28;20473;-56
2021/11/20 08:58:16;;;;;;;6.10;3.22;;;;;;;;;;5050123;28;20033;-57
2021/11/20 09:00:45;;;;;;;9.45;3.28;;;;;;;;;;5043788;28;20029;-56
2021/11/20 09:03:17;;;;;;;6.95;2.92;;;;;;;;;;5055233;28;20484;-55
2021/11/20 09:05:47;;;;;;;5.82;2.72;;;;;;;;;;5052376;28;20461;-56
2021/11/20 09:08:16;;;;;;;13.07;3.40;;;;;;;;;;5051464;28;20047;-57
2021/11/20 09:11:05;;;;;;;8.55;3.20;;;;;;;;;;5054913;28;20091;-57
2021/11/20 09:13:34;;;;;;;9.80;2.80;;;;;;;;;;5049698;28;20040;-56
2021/11/20 09:16:04;;;;;;;10.65;2.30;;;;;;;;;;5040223;28;20029;-57
2021/11/20 09:18:31;;;;;;;3.45;2.10;;;;;;;;;;5049543;28;20061;-55
2021/11/20 09:20:57;;;;;;;4.60;2.58;;;;;;;;;;5056238;28;20020;-57
2021/11/20 09:23:23;;;;;;;3.60;2.20;;;;;;;;;;5053295;28;20029;-55
2021/11/20 09:25:52;;;;;;;7.63;3.13;;;;;;;;;;5048993;28;20531;-55
2021/11/20 09:28:18;;;;;;;3.55;2.17;;;;;;;;;;5050700;28;20060;-55
2021/11/20 09:30:46;;;;;;;6.60;2.38;;;;;;;;;;5056018;28;20033;-55
2021/11/20 09:33:13;;;;;;;8.32;2.33;;;;;;;;;;5045213;28;20504;-56
2021/11/20 09:35:39;;;;;;;3.58;2.10;;;;;;;;;;5043850;28;20120;-57
2021/11/20 09:38:05;;;;;;;4.95;2.00;;;;;;;;;;5048643;28;20040;-56
2021/11/20 09:40:33;;;;;;;7.45;2.38;;;;;;;;;;5060393;28;20091;-57
2021/11/20 09:43:01;;;;;;;6.18;2.35;;;;;;;;;;5048404;28;20033;-57
2021/11/20 09:45:33;;;;;;;5.90;2.47;;;;;;;;;;5042191;28;20083;-57
2021/11/20 09:48:01;;;;;;;5.88;2.05;;;;;;;;;;5045012;28;20082;-56
2021/11/20 09:50:32;;;;;;;7.22;3.03;;;;;;;;;;5045915;28;20028;-58
2021/11/20 09:52:58;;;;;;;5.80;2.30;;;;;;;;;;5044787;28;20029;-57
2021/11/20 09:55:29;;;;;;;4.40;2.40;;;;;;;;;;5048107;28;20071;-55
2021/11/20 09:58:00;;;;;;;5.97;2.60;;;;;;;;;;5051720;28;20439;-57
2021/11/20 10:00:46;;;;;;;3.25;2.22;;;;;;;;;;5049643;28;20040;-56
2021/11/20 10:03:24;;;;;;;6.13;2.83;;;;;;;;;;5038951;28;20025;-57
2021/11/20 10:06:00;;;;;;;6.88;2.92;;;;;;;;;;5053789;28;20024;-57
2021/11/20 10:08:27;;;;;;;4.55;2.83;;;;;;;;;;5049077;28;20100;-56
2021/11/20 10:10:59;;;;;;;10.75;2.42;;;;;;;;;;5056387;28;20485;-55
2021/11/20 10:13:29;;;;;;;11.18;3.05;;;;;;;;;;5051856;28;20116;-57
2021/11/20 10:15:59;;;;;;;3.92;2.97;;;;;;;;;;5054925;28;20029;-57
2021/11/20 10:18:34;;;;;;;4.10;2.80;;;;;;;;;;5055109;28;20025;-57
2021/11/20 10:21:16;;;;;;;4.40;2.75;;;;;;;;;;5048714;28;20029;-56
2021/11/20 10:23:54;;;;;;;5.13;2.97;;;;;;;;;;5046042;28;20539;-56
2021/11/20 10:26:40;;;;;;;7.80;3.42;;;;;;;;;;5046547;28;20025;-57
2021/11/20 10:29:17;;;;;;;4.50;3.05;;;;;;;;;;5043153;28;20063;-53
2021/11/20 10:31:48;;;;;;;6.03;3.22;;;;;;;;;;5045648;28;20035;-55
2021/11/20 10:34:23;;;;;;;4.47;3.03;;;;;;;;;;5044273;28;20120;-54
2021/11/20 10:37:19;;;;;;;5.00;3.08;;;;;;;;;;5045728;28;20111;-56
2021/11/20 10:39:47;;;;;;;12.57;3.65;;;;;;;;;;5041784;28;20094;-57
2021/11/20 10:42:19;;;;;;;12.30;3.83;;;;;;;;;;5046169;28;20084;-56
2021/11/20 10:44:50;;;;;;;5.10;3.10;;;;;;;;;;5048459;28;20100;-56
2021/11/20 10:47:16;;;;;;;9.10;3.47;;;;;;;;;;5047996;28;20032;-55
2021/11/20 10:49:42;;;;;;;6.72;3.65;;;;;;;;;;5046100;28;20086;-57
2021/11/20 10:52:10;;;;;;;7.10;4.38;;;;;;;;;;5051718;28;20040;-56
2021/11/20 10:55:03;;;;;;;7.22;3.90;;;;;;;;;;5054154;28;20025;-56
2021/11/20 10:57:41;;;;;;;5.97;3.55;;;;;;;;;;5052964;28;20131;-55
2021/11/20 11:00:24;;;;;;;4.93;3.40;;;;;;;;;;5048367;28;20029;-56
2021/11/20 11:03:02;;;;;;;7.05;3.70;;;;;;;;;;5049804;28;20070;-56
2021/11/20 11:05:43;;;;;;;9.90;3.97;;;;;;;;;;5052002;28;20100;-55
2021/11/20 11:08:09;;;;;;;6.07;3.63;;;;;;;;;;5054247;28;20029;-56
2021/11/20 11:10:37;;;;;;;5.63;3.00;;;;;;;;;;5053627;28;20029;-56
2021/11/20 11:13:09;;;;;;;7.85;4.15;;;;;;;;;;5054223;28;20035;-55
2021/11/20 11:16:00;;;;;;;5.65;3.88;;;;;;;;;;5052454;28;20419;-57
2021/11/20 11:18:32;;;;;;;6.03;3.42;;;;;;;;;;5049502;28;20036;-57
2021/11/20 11:21:01;;;;;;;8.38;3.88;;;;;;;;;;5053163;28;20025;-56
2021/11/20 11:23:42;;;;;;;5.70;3.63;;;;;;;;;;5052262;28;20412;-56
2021/11/20 11:26:09;;;;;;;7.03;4.30;;;;;;;;;;5052320;28;20020;-55
2021/11/20 11:28:39;;;;;;;10.82;4.38;;;;;;;;;;5050541;28;20025;-54
2021/11/20 11:31:09;;;;;;;8.30;3.85;;;;;;;;;;5049765;28;20529;-57
2021/11/20 11:33:37;;;;;;;5.40;3.42;;;;;;;;;;5049266;28;20756;-57
2021/11/20 11:36:06;;;;;;;6.22;3.38;;;;;;;;;;5052430;28;20119;-57
2021/11/20 11:38:51;;;;;;;8.45;3.70;;;;;;;;;;5051229;28;20032;-56
2021/11/20 11:41:29;;;;;;;7.82;3.70;;;;;;;;;;5052406;28;20119;-57
2021/11/20 11:44:10;;;;;;;7.78;4.45;;;;;;;;;;5053640;28;20597;-57
2021/11/20 11:46:54;;;;;;;10.07;4.28;;;;;;;;;;5049022;28;20056;-57
2021/11/20 11:49:26;;;;;;;5.82;4.15;;;;;;;;;;5049921;28;20032;-57
2021/11/20 11:52:18;;;;;;;7.85;3.92;;;;;;;;;;5052941;28;20032;-57
2021/11/20 11:54:44;;;;;;;6.80;4.30;;;;;;;;;;5052252;28;20078;-57
2021/11/20 11:57:13;;;;;;;6.68;3.95;;;;;;;;;;5055026;28;20485;-56
2021/11/20 12:00:09;;;;;;;10.02;4.18;;;;;;;;;;5051993;28;20036;-56
2021/11/20 12:02:38;;;;;;;7.65;4.55;;;;;;;;;;5054406;28;20070;-57
2021/11/20 12:05:23;;;;;;;7.65;3.75;;;;;;;;;;5052758;28;20028;-57
2021/11/20 12:07:52;;;;;;;7.50;4.85;;;;;;;;;;5051229;28;20025;-57
2021/11/20 12:10:28;;;;;;;10.48;3.70;;;;;;;;;;5052800;28;20389;-57
2021/11/20 12:13:04;;;;;;;10.02;4.38;;;;;;;;;;5053564;28;20024;-57
2021/11/20 12:15:48;;;;;;;8.38;3.72;;;;;;;;;;5053339;28;20051;-54
2021/11/20 12:18:35;;;;;;;7.35;4.70;;;;;;;;;;5053673;28;20036;-57
2021/11/20 12:21:16;;;;;;;9.23;4.90;;;;;;;;;;5051237;28;20064;-52
2021/11/20 12:23:49;;;;;;;7.30;4.25;;;;;;;;;;5051273;28;20037;-55
2021/11/20 12:26:24;;;;;;;8.60;4.82;;;;;;;;;;5051803;28;20377;-56
2021/11/20 12:28:56;;;;;;;8.50;4.80;;;;;;;;;;5050668;28;20033;-57
2021/11/20 12:31:34;;;;;;;9.55;4.30;;;;;;;;;;5047555;28;20026;-57
2021/11/20 12:34:06;;;;;;;10.57;4.45;;;;;;;;;;5049852;28;20052;-54
2021/11/20 12:36:40;;;;;;;9.80;4.97;;;;;;;;;;5050950;28;20029;-56
2021/11/20 12:39:18;;;;;;;7.65;4.47;;;;;;;;;;5044116;28;20025;-56
2021/11/20 12:41:55;;;;;;;8.85;4.43;;;;;;;;;;5052237;28;20120;-55
2021/11/20 12:44:28;;;;;;;7.88;4.40;;;;;;;;;;5049690;28;20100;-55
2021/11/20 12:46:54;;;;;;;;;;;;;;;;;;5051959;28;20025;-57
2021/11/20 12:49:26;;;;;;;8.82;4.03;;;;;;;;;;5050058;28;20357;-57
2021/11/20 12:52:04;;;;;;;7.72;4.50;;;;;;;;;;5051480;28;20028;-57
2021/11/20 12:54:49;;;;;;;6.78;4.38;;;;;;;;;;5046729;28;20037;-57
2021/11/20 12:57:26;;;;;;;6.50;3.95;;;;;;;;;;5045494;28;20390;-57
2021/11/20 12:59:55;;;;;;;9.80;4.43;;;;;;;;;;5049258;28;20032;-54
2021/11/20 13:02:34;;;;;;;5.75;3.90;;;;;;;;;;5049842;28;20059;-57
2021/11/20 13:05:09;;;;;;;11.27;4.72;;;;;;;;;;5049782;28;20028;-56
2021/11/20 13:07:35;;;;;;;10.30;3.97;;;;;;;;;;5050086;28;20359;-57
2021/11/20 13:10:05;;;;;;;6.75;4.47;;;;;;;;;;5048433;28;20408;-57
2021/11/20 13:12:32;;;;;;;10.68;5.50;;;;;;;;;;5049745;28;20081;-57
2021/11/20 13:15:06;;;;;;;8.38;4.47;;;;;;;;;;5050140;28;20060;-54
2021/11/20 13:17:32;;;;;;;;;;;;;;;;;;5050836;28;20060;-57
2021/11/20 13:20:10;;;;;;;9.98;4.57;;;;;;;;;;5050907;28;19912;-57
2021/11/20 13:22:41;;;;;;;7.00;4.45;;;;;;;;;;5050249;28;20025;-54
2021/11/20 13:25:20;;;;;;;10.90;5.07;;;;;;;;;;5045799;28;20031;-56
2021/11/20 13:27:54;;;;;;;7.88;4.82;;;;;;;;;;5050782;28;20036;-57
2021/11/20 13:30:21;;;;;;;8.38;5.05;;;;;;;;;;5049037;28;20431;-56
2021/11/20 13:32:52;;;;;;;7.03;4.50;;;;;;;;;;5046828;28;20041;-56
2021/11/20 13:35:23;;;;;;;6.93;4.07;;;;;;;;;;5049485;28;20033;-56
2021/11/20 13:37:56;;;;;;;11.35;4.78;;;;;;;;;;5049295;28;20032;-56
2021/11/20 13:40:24;;;;;;;9.15;4.75;;;;;;;;;;5047795;28;20036;-57
2021/11/20 13:42:50;;;;;;;7.60;4.40;;;;;;;;;;5050519;28;20029;-56
2021/11/20 13:45:16;;;;;;;9.65;4.78;;;;;;;;;;5050459;28;20017;-57
2021/11/20 13:47:46;;;;;;;10.80;5.07;;;;;;;;;;5050302;28;20036;-55
2021/11/20 13:50:12;;;;;;;6.60;4.18;;;;;;;;;;5050396;28;20013;-54
2021/11/20 13:52:38;;;;;;;7.07;4.68;;;;;;;;;;5044719;28;20587;-57
2021/11/20 13:55:05;;;;;;;7.97;5.03;;;;;;;;;;5047344;28;20099;-56
2021/11/20 13:57:40;;;;;;;12.02;4.90;;;;;;;;;;5047977;28;20346;-55
2021/11/20 14:00:10;;;;;;;7.53;4.70;;;;;;;;;;5045663;28;20429;-57
2021/11/20 14:02:43;;;;;;;10.73;4.90;;;;;;;;;;5049710;28;20033;-57
2021/11/20 14:05:09;;;;;;;5.82;3.60;;;;;;;;;;5046778;28;20022;-54
2021/11/20 14:07:35;;;;;;;10.90;5.47;;;;;;;;;;5049356;28;20150;-57
2021/11/20 14:10:10;;;;;;;10.82;5.22;;;;;;;;;;5050073;28;20037;-57
2021/11/20 14:12:51;;;;;;;9.77;4.70;;;;;;;;;;5050618;28;20025;-57
2021/11/20 14:15:18;;;;;;;10.70;5.80;;;;;;;;;;5051410;28;20028;-56
2021/11/20 14:17:44;;;;;;;9.48;5.72;;;;;;;;;;5049549;28;20020;-57
2021/11/20 14:20:15;;;;;;;9.13;5.35;;;;;;;;;;5050279;28;20075;-57
2021/11/20 14:22:42;;;;;;;10.68;5.65;;;;;;;;;;5051229;28;20400;-57
2021/11/20 14:25:19;;;;;;;10.70;6.03;;;;;;;;;;5044839;28;20100;-57
2021/11/20 14:28:02;;;;;;;7.43;5.10;;;;;;;;;;5050661;28;20059;-57
2021/11/20 14:30:28;;;;;;;9.07;6.22;;;;;;;;;;5043255;28;20084;-57
2021/11/20 14:33:05;;;;;;;8.93;5.28;;;;;;;;;;5052850;28;20044;-57
2021/11/20 14:35:31;;;;;;;8.75;5.68;;;;;;;;;;5048888;28;20385;-57
2021/11/20 14:37:58;;;;;;;10.40;5.63;;;;;;;;;;5050881;28;20036;-56
2021/11/20 14:40:24;;;;;;;11.25;5.63;;;;;;;;;;5052937;28;20029;-56
2021/11/20 14:42:50;;;;;;;11.52;6.50;;;;;;;;;;5050669;28;20033;-57
2021/11/20 14:45:20;;;;;;;9.18;5.65;;;;;;;;;;5046958;28;20030;-53
2021/11/20 14:47:50;;;;;;;10.50;5.63;;;;;;;;;;5053161;28;20044;-56
2021/11/20 14:50:21;;;;;;;11.52;7.10;;;;;;;;;;5054745;28;20029;-56
2021/11/20 14:52:47;;;;;;;12.30;6.43;;;;;;;;;;5055007;28;20032;-55
2021/11/20 14:55:13;;;;;;;9.52;6.45;;;;;;;;;;5054228;28;20031;-57
2021/11/20 14:57:41;;;;;;;11.68;5.72;;;;;;;;;;5053908;28;20025;-57